sensor_id;sensor_type;location;lat;lon;timestamp;P1;durP1;ratioP1;P2;durP2;ratioP2
20038;SDS011;21737;42.868;25.320;2022-12-07T00:02:35;52.60;;;21.67;;
20038;SDS011;21737;42.868;25.320;2022-12-07T00:05:37;63.70;;;22.60;;
20038;SDS011;21737;42.868;25.320;2022-12-07T00:08:39;59.17;;;21.70;;
20038;SDS011;21737;42.868;25.320;2022-12-07T00:11:41;108.20;;;20.93;;
20038;SDS011;21737;42.868;25.320;2022-12-07T00:14:42;104.83;;;24.33;;
20038;SDS011;21737;42.868;25.320;2022-12-07T00:17:44;134.33;;;24.83;;
20038;SDS011;21737;42.868;25.320;2022-12-07T00:20:46;96.03;;;21.30;;
20038;SDS011;21737;42.868;25.320;2022-12-07T00:23:48;140.87;;;22.23;;
20038;SDS011;21737;42.868;25.320;2022-12-07T00:26:50;141.87;;;21.27;;
20038;SDS011;21737;42.868;25.320;2022-12-07T00:29:52;206.70;;;23.03;;
20038;SDS011;21737;42.868;25.320;2022-12-07T00:32:54;114.03;;;23.27;;
20038;SDS011;21737;42.868;25.320;2022-12-07T00:35:56;158.20;;;22.27;;
20038;SDS011;21737;42.868;25.320;2022-12-07T00:38:58;125.73;;;20.63;;
20038;SDS011;21737;42.868;25.320;2022-12-07T00:42:00;122.93;;;19.87;;
20038;SDS011;21737;42.868;25.320;2022-12-07T00:45:02;76.10;;;19.97;;
20038;SDS011;21737;42.868;25.320;2022-12-07T00:48:04;91.57;;;19.33;;
20038;SDS011;21737;42.868;25.320;2022-12-07T00:51:05;54.70;;;17.63;;
20038;SDS011;21737;42.868;25.320;2022-12-07T00:54:07;49.30;;;17.77;;
20038;SDS011;21737;42.868;25.320;2022-12-07T00:57:09;65.77;;;17.80;;
20038;SDS011;21737;42.868;25.320;2022-12-07T01:00:10;55.33;;;19.53;;
20038;SDS011;21737;42.868;25.320;2022-12-07T01:03:13;66.53;;;18.53;;
20038;SDS011;21737;42.868;25.320;2022-12-07T01:06:15;53.03;;;18.67;;
20038;SDS011;21737;42.868;25.320;2022-12-07T01:09:17;55.87;;;20.17;;
20038;SDS011;21737;42.868;25.320;2022-12-07T01:12:19;58.10;;;20.07;;
20038;SDS011;21737;42.868;25.320;2022-12-07T01:15:21;57.30;;;18.80;;
20038;SDS011;21737;42.868;25.320;2022-12-07T01:18:22;56.53;;;18.70;;
20038;SDS011;21737;42.868;25.320;2022-12-07T01:21:25;77.27;;;18.77;;
20038;SDS011;21737;42.868;25.320;2022-12-07T01:24:27;51.60;;;18.37;;
20038;SDS011;21737;42.868;25.320;2022-12-07T01:27:29;52.47;;;17.90;;
20038;SDS011;21737;42.868;25.320;2022-12-07T01:30:30;52.10;;;17.30;;
20038;SDS011;21737;42.868;25.320;2022-12-07T01:33:33;48.03;;;17.93;;
20038;SDS011;21737;42.868;25.320;2022-12-07T01:36:35;46.63;;;17.97;;
20038;SDS011;21737;42.868;25.320;2022-12-07T01:39:37;42.17;;;17.57;;
20038;SDS011;21737;42.868;25.320;2022-12-07T01:42:39;57.20;;;16.80;;
20038;SDS011;21737;42.868;25.320;2022-12-07T01:45:40;57.93;;;17.27;;
20038;SDS011;21737;42.868;25.320;2022-12-07T01:48:42;46.47;;;17.97;;
20038;SDS011;21737;42.868;25.320;2022-12-07T01:51:44;42.83;;;18.20;;
20038;SDS011;21737;42.868;25.320;2022-12-07T01:54:47;40.20;;;18.07;;
20038;SDS011;21737;42.868;25.320;2022-12-07T01:57:52;39.23;;;18.00;;
20038;SDS011;21737;42.868;25.320;2022-12-07T02:00:55;48.90;;;19.23;;
20038;SDS011;21737;42.868;25.320;2022-12-07T02:03:56;39.40;;;17.63;;
20038;SDS011;21737;42.868;25.320;2022-12-07T02:06:58;38.87;;;17.13;;
20038;SDS011;21737;42.868;25.320;2022-12-07T02:10:13;43.53;;;17.30;;
20038;SDS011;21737;42.868;25.320;2022-12-07T02:13:16;35.17;;;16.10;;
20038;SDS011;21737;42.868;25.320;2022-12-07T02:22:56;36.77;;;17.67;;
20038;SDS011;21737;42.868;25.320;2022-12-07T02:29:40;33.50;;;15.10;;
20038;SDS011;21737;42.868;25.320;2022-12-07T02:39:00;36.80;;;16.90;;
20038;SDS011;21737;42.868;25.320;2022-12-07T02:42:03;38.30;;;17.73;;
20038;SDS011;21737;42.868;25.320;2022-12-07T02:45:07;36.10;;;16.63;;
20038;SDS011;21737;42.868;25.320;2022-12-07T02:48:10;37.50;;;17.53;;
20038;SDS011;21737;42.868;25.320;2022-12-07T02:51:12;35.13;;;18.53;;
20038;SDS011;21737;42.868;25.320;2022-12-07T02:54:15;35.30;;;17.27;;
20038;SDS011;21737;42.868;25.320;2022-12-07T03:00:22;32.20;;;15.77;;
20038;SDS011;21737;42.868;25.320;2022-12-07T03:03:23;29.27;;;15.90;;
20038;SDS011;21737;42.868;25.320;2022-12-07T03:06:31;29.53;;;15.00;;
20038;SDS011;21737;42.868;25.320;2022-12-07T03:09:39;27.10;;;13.93;;
20038;SDS011;21737;42.868;25.320;2022-12-07T03:21:58;28.87;;;15.07;;
20038;SDS011;21737;42.868;25.320;2022-12-07T03:25:04;27.97;;;13.67;;
20038;SDS011;21737;42.868;25.320;2022-12-07T03:28:07;26.33;;;14.00;;
20038;SDS011;21737;42.868;25.320;2022-12-07T03:31:12;25.70;;;13.13;;
20038;SDS011;21737;42.868;25.320;2022-12-07T03:34:27;30.00;;;15.43;;
20038;SDS011;21737;42.868;25.320;2022-12-07T03:37:34;32.47;;;17.27;;
20038;SDS011;21737;42.868;25.320;2022-12-07T03:40:45;33.90;;;18.70;;
20038;SDS011;21737;42.868;25.320;2022-12-07T03:43:48;28.87;;;14.73;;
20038;SDS011;21737;42.868;25.320;2022-12-07T03:46:52;32.70;;;15.77;;
20038;SDS011;21737;42.868;25.320;2022-12-07T03:50:02;36.93;;;18.57;;
20038;SDS011;21737;42.868;25.320;2022-12-07T03:53:09;32.30;;;18.63;;
20038;SDS011;21737;42.868;25.320;2022-12-07T03:56:12;28.67;;;15.47;;
20038;SDS011;21737;42.868;25.320;2022-12-07T03:59:14;28.83;;;14.67;;
20038;SDS011;21737;42.868;25.320;2022-12-07T04:02:17;29.90;;;15.40;;
20038;SDS011;21737;42.868;25.320;2022-12-07T04:05:19;33.70;;;16.10;;
20038;SDS011;21737;42.868;25.320;2022-12-07T04:08:20;27.50;;;15.33;;
20038;SDS011;21737;42.868;25.320;2022-12-07T04:11:22;38.10;;;17.43;;
20038;SDS011;21737;42.868;25.320;2022-12-07T04:14:24;31.00;;;16.47;;
20038;SDS011;21737;42.868;25.320;2022-12-07T04:17:25;42.43;;;19.17;;
20038;SDS011;21737;42.868;25.320;2022-12-07T04:20:27;48.40;;;21.20;;
20038;SDS011;21737;42.868;25.320;2022-12-07T04:23:29;47.93;;;20.97;;
20038;SDS011;21737;42.868;25.320;2022-12-07T04:26:30;46.93;;;21.47;;
20038;SDS011;21737;42.868;25.320;2022-12-07T04:29:32;49.60;;;22.10;;
20038;SDS011;21737;42.868;25.320;2022-12-07T04:32:34;61.27;;;24.37;;
20038;SDS011;21737;42.868;25.320;2022-12-07T04:35:35;44.77;;;19.43;;
20038;SDS011;21737;42.868;25.320;2022-12-07T04:38:37;43.10;;;19.87;;
20038;SDS011;21737;42.868;25.320;2022-12-07T04:41:39;34.50;;;19.37;;
20038;SDS011;21737;42.868;25.320;2022-12-07T04:44:40;33.03;;;18.60;;
20038;SDS011;21737;42.868;25.320;2022-12-07T04:47:42;37.07;;;19.37;;
20038;SDS011;21737;42.868;25.320;2022-12-07T04:50:44;38.40;;;21.30;;
20038;SDS011;21737;42.868;25.320;2022-12-07T04:53:46;42.50;;;22.50;;
20038;SDS011;21737;42.868;25.320;2022-12-07T04:56:48;45.47;;;25.33;;
20038;SDS011;21737;42.868;25.320;2022-12-07T04:59:50;36.13;;;19.27;;
20038;SDS011;21737;42.868;25.320;2022-12-07T05:02:51;33.97;;;18.57;;
20038;SDS011;21737;42.868;25.320;2022-12-07T05:05:53;31.33;;;17.17;;
20038;SDS011;21737;42.868;25.320;2022-12-07T05:08:55;41.20;;;19.67;;
20038;SDS011;21737;42.868;25.320;2022-12-07T05:11:56;35.33;;;18.57;;
20038;SDS011;21737;42.868;25.320;2022-12-07T05:14:58;37.40;;;20.10;;
20038;SDS011;21737;42.868;25.320;2022-12-07T05:17:59;39.47;;;19.43;;
20038;SDS011;21737;42.868;25.320;2022-12-07T05:21:01;38.20;;;19.37;;
20038;SDS011;21737;42.868;25.320;2022-12-07T05:24:03;31.83;;;19.30;;
20038;SDS011;21737;42.868;25.320;2022-12-07T05:27:05;37.17;;;19.50;;
20038;SDS011;21737;42.868;25.320;2022-12-07T05:30:07;38.57;;;21.00;;
20038;SDS011;21737;42.868;25.320;2022-12-07T05:33:10;43.13;;;24.03;;
20038;SDS011;21737;42.868;25.320;2022-12-07T05:36:15;55.00;;;26.17;;
20038;SDS011;21737;42.868;25.320;2022-12-07T05:39:23;42.73;;;21.20;;
20038;SDS011;21737;42.868;25.320;2022-12-07T05:42:28;44.80;;;20.27;;
20038;SDS011;21737;42.868;25.320;2022-12-07T05:45:30;56.13;;;23.57;;
20038;SDS011;21737;42.868;25.320;2022-12-07T05:48:31;66.37;;;30.03;;
20038;SDS011;21737;42.868;25.320;2022-12-07T05:51:33;58.87;;;29.67;;
20038;SDS011;21737;42.868;25.320;2022-12-07T05:54:35;52.53;;;24.33;;
20038;SDS011;21737;42.868;25.320;2022-12-07T05:57:36;52.70;;;29.67;;
20038;SDS011;21737;42.868;25.320;2022-12-07T06:00:38;86.80;;;40.30;;
20038;SDS011;21737;42.868;25.320;2022-12-07T06:03:39;133.57;;;69.40;;
20038;SDS011;21737;42.868;25.320;2022-12-07T06:06:41;49.27;;;24.13;;
20038;SDS011;21737;42.868;25.320;2022-12-07T06:09:43;27.57;;;15.47;;
20038;SDS011;21737;42.868;25.320;2022-12-07T06:12:44;40.93;;;18.47;;
20038;SDS011;21737;42.868;25.320;2022-12-07T06:15:47;39.40;;;19.43;;
20038;SDS011;21737;42.868;25.320;2022-12-07T06:18:49;51.70;;;23.17;;
20038;SDS011;21737;42.868;25.320;2022-12-07T06:21:51;57.37;;;27.03;;
20038;SDS011;21737;42.868;25.320;2022-12-07T06:24:52;60.60;;;28.27;;
20038;SDS011;21737;42.868;25.320;2022-12-07T06:27:54;57.93;;;30.40;;
20038;SDS011;21737;42.868;25.320;2022-12-07T06:31:00;62.40;;;32.70;;
20038;SDS011;21737;42.868;25.320;2022-12-07T06:34:03;72.87;;;35.63;;
20038;SDS011;21737;42.868;25.320;2022-12-07T06:37:05;62.90;;;32.23;;
20038;SDS011;21737;42.868;25.320;2022-12-07T06:40:07;63.63;;;33.47;;
20038;SDS011;21737;42.868;25.320;2022-12-07T06:43:09;53.83;;;30.00;;
20038;SDS011;21737;42.868;25.320;2022-12-07T06:46:11;60.60;;;33.67;;
20038;SDS011;21737;42.868;25.320;2022-12-07T06:49:12;53.30;;;29.80;;
20038;SDS011;21737;42.868;25.320;2022-12-07T06:52:14;44.53;;;25.67;;
20038;SDS011;21737;42.868;25.320;2022-12-07T06:55:17;81.70;;;43.37;;
20038;SDS011;21737;42.868;25.320;2022-12-07T06:58:19;63.00;;;36.43;;
20038;SDS011;21737;42.868;25.320;2022-12-07T07:01:20;57.63;;;34.03;;
20038;SDS011;21737;42.868;25.320;2022-12-07T07:04:22;60.40;;;34.53;;
20038;SDS011;21737;42.868;25.320;2022-12-07T07:07:25;57.17;;;34.50;;
20038;SDS011;21737;42.868;25.320;2022-12-07T07:10:26;46.53;;;25.93;;
20038;SDS011;21737;42.868;25.320;2022-12-07T07:13:28;45.73;;;27.77;;
20038;SDS011;21737;42.868;25.320;2022-12-07T07:16:30;49.77;;;29.27;;
20038;SDS011;21737;42.868;25.320;2022-12-07T07:19:32;52.87;;;33.23;;
20038;SDS011;21737;42.868;25.320;2022-12-07T07:22:34;54.37;;;31.07;;
20038;SDS011;21737;42.868;25.320;2022-12-07T07:25:35;43.50;;;25.77;;
20038;SDS011;21737;42.868;25.320;2022-12-07T07:28:37;45.97;;;27.27;;
20038;SDS011;21737;42.868;25.320;2022-12-07T07:31:39;45.10;;;24.47;;
20038;SDS011;21737;42.868;25.320;2022-12-07T07:34:40;57.07;;;30.07;;
20038;SDS011;21737;42.868;25.320;2022-12-07T07:37:42;60.40;;;27.50;;
20038;SDS011;21737;42.868;25.320;2022-12-07T07:40:44;49.00;;;27.30;;
20038;SDS011;21737;42.868;25.320;2022-12-07T07:43:46;51.43;;;31.77;;
20038;SDS011;21737;42.868;25.320;2022-12-07T07:46:47;55.40;;;34.70;;
20038;SDS011;21737;42.868;25.320;2022-12-07T07:49:49;54.33;;;33.00;;
20038;SDS011;21737;42.868;25.320;2022-12-07T07:52:51;85.43;;;50.20;;
20038;SDS011;21737;42.868;25.320;2022-12-07T07:55:53;82.83;;;48.33;;
20038;SDS011;21737;42.868;25.320;2022-12-07T07:58:55;71.97;;;44.20;;
20038;SDS011;21737;42.868;25.320;2022-12-07T08:01:57;79.57;;;43.83;;
20038;SDS011;21737;42.868;25.320;2022-12-07T08:04:59;59.93;;;34.37;;
20038;SDS011;21737;42.868;25.320;2022-12-07T08:08:00;59.40;;;33.40;;
20038;SDS011;21737;42.868;25.320;2022-12-07T08:11:06;59.10;;;34.23;;
20038;SDS011;21737;42.868;25.320;2022-12-07T08:14:09;63.23;;;31.80;;
20038;SDS011;21737;42.868;25.320;2022-12-07T08:17:11;52.50;;;29.17;;
20038;SDS011;21737;42.868;25.320;2022-12-07T08:20:13;70.40;;;38.30;;
20038;SDS011;21737;42.868;25.320;2022-12-07T08:23:15;61.90;;;33.40;;
20038;SDS011;21737;42.868;25.320;2022-12-07T08:26:17;56.97;;;32.07;;
20038;SDS011;21737;42.868;25.320;2022-12-07T08:29:18;74.53;;;39.63;;
20038;SDS011;21737;42.868;25.320;2022-12-07T08:32:21;82.67;;;42.83;;
20038;SDS011;21737;42.868;25.320;2022-12-07T08:35:22;66.63;;;40.37;;
20038;SDS011;21737;42.868;25.320;2022-12-07T08:38:24;70.77;;;42.00;;
20038;SDS011;21737;42.868;25.320;2022-12-07T08:41:32;67.83;;;38.67;;
20038;SDS011;21737;42.868;25.320;2022-12-07T08:44:34;70.63;;;38.77;;
20038;SDS011;21737;42.868;25.320;2022-12-07T08:47:40;68.87;;;39.33;;
20038;SDS011;21737;42.868;25.320;2022-12-07T08:50:42;79.67;;;46.90;;
20038;SDS011;21737;42.868;25.320;2022-12-07T08:53:50;85.93;;;45.50;;
20038;SDS011;21737;42.868;25.320;2022-12-07T08:56:53;78.80;;;44.07;;
20038;SDS011;21737;42.868;25.320;2022-12-07T09:00:00;82.30;;;42.73;;
20038;SDS011;21737;42.868;25.320;2022-12-07T09:03:02;86.67;;;46.67;;
20038;SDS011;21737;42.868;25.320;2022-12-07T09:06:04;94.57;;;51.83;;
20038;SDS011;21737;42.868;25.320;2022-12-07T09:09:06;99.23;;;56.57;;
20038;SDS011;21737;42.868;25.320;2022-12-07T09:12:08;126.07;;;65.20;;
20038;SDS011;21737;42.868;25.320;2022-12-07T09:15:11;104.80;;;55.37;;
20038;SDS011;21737;42.868;25.320;2022-12-07T09:18:13;103.47;;;57.77;;
20038;SDS011;21737;42.868;25.320;2022-12-07T09:21:15;102.20;;;55.03;;
20038;SDS011;21737;42.868;25.320;2022-12-07T09:24:16;86.50;;;45.73;;
20038;SDS011;21737;42.868;25.320;2022-12-07T09:27:18;85.90;;;49.30;;
20038;SDS011;21737;42.868;25.320;2022-12-07T09:30:20;107.50;;;53.93;;
20038;SDS011;21737;42.868;25.320;2022-12-07T09:33:21;102.70;;;48.53;;
20038;SDS011;21737;42.868;25.320;2022-12-07T09:36:23;80.70;;;42.87;;
20038;SDS011;21737;42.868;25.320;2022-12-07T09:39:25;82.60;;;42.20;;
20038;SDS011;21737;42.868;25.320;2022-12-07T09:45:35;69.87;;;39.23;;
20038;SDS011;21737;42.868;25.320;2022-12-07T09:48:37;72.87;;;37.60;;
20038;SDS011;21737;42.868;25.320;2022-12-07T09:51:40;66.90;;;35.23;;
20038;SDS011;21737;42.868;25.320;2022-12-07T09:54:43;71.87;;;35.60;;
20038;SDS011;21737;42.868;25.320;2022-12-07T09:57:46;66.77;;;34.03;;
20038;SDS011;21737;42.868;25.320;2022-12-07T10:00:49;54.40;;;30.47;;
20038;SDS011;21737;42.868;25.320;2022-12-07T10:03:52;52.27;;;29.37;;
20038;SDS011;21737;42.868;25.320;2022-12-07T10:06:54;48.23;;;26.87;;
20038;SDS011;21737;42.868;25.320;2022-12-07T10:09:56;49.97;;;26.80;;
20038;SDS011;21737;42.868;25.320;2022-12-07T10:12:59;54.07;;;28.33;;
20038;SDS011;21737;42.868;25.320;2022-12-07T10:16:01;50.47;;;29.27;;
20038;SDS011;21737;42.868;25.320;2022-12-07T10:22:53;70.83;;;36.80;;
20038;SDS011;21737;42.868;25.320;2022-12-07T10:25:55;74.80;;;37.83;;
20038;SDS011;21737;42.868;25.320;2022-12-07T10:29:12;72.70;;;36.13;;
20038;SDS011;21737;42.868;25.320;2022-12-07T10:35:27;98.40;;;46.93;;
20038;SDS011;21737;42.868;25.320;2022-12-07T10:38:29;76.07;;;41.27;;
20038;SDS011;21737;42.868;25.320;2022-12-07T10:41:33;64.10;;;34.60;;
20038;SDS011;21737;42.868;25.320;2022-12-07T10:44:35;90.07;;;43.67;;
20038;SDS011;21737;42.868;25.320;2022-12-07T10:54:12;127.83;;;57.40;;
20038;SDS011;21737;42.868;25.320;2022-12-07T11:00:24;182.10;;;78.13;;
20038;SDS011;21737;42.868;25.320;2022-12-07T11:19:42;213.03;;;100.03;;
20038;SDS011;21737;42.868;25.320;2022-12-07T11:32:17;97.90;;;46.23;;
20038;SDS011;21737;42.868;25.320;2022-12-07T11:35:56;101.30;;;48.20;;
20038;SDS011;21737;42.868;25.320;2022-12-07T11:38:55;68.93;;;37.80;;
20038;SDS011;21737;42.868;25.320;2022-12-07T11:42:01;68.67;;;30.00;;
20038;SDS011;21737;42.868;25.320;2022-12-07T11:45:15;63.63;;;32.67;;
20038;SDS011;21737;42.868;25.320;2022-12-07T11:48:20;62.33;;;33.87;;
20038;SDS011;21737;42.868;25.320;2022-12-07T11:51:24;67.17;;;35.67;;
20038;SDS011;21737;42.868;25.320;2022-12-07T11:54:38;68.73;;;39.70;;
20038;SDS011;21737;42.868;25.320;2022-12-07T11:57:42;65.20;;;38.13;;
20038;SDS011;21737;42.868;25.320;2022-12-07T12:00:45;79.13;;;38.50;;
20038;SDS011;21737;42.868;25.320;2022-12-07T12:03:48;61.80;;;36.50;;
20038;SDS011;21737;42.868;25.320;2022-12-07T12:06:54;78.80;;;38.30;;
20038;SDS011;21737;42.868;25.320;2022-12-07T12:10:02;73.47;;;40.73;;
20038;SDS011;21737;42.868;25.320;2022-12-07T12:19:44;147.37;;;72.57;;
20038;SDS011;21737;42.868;25.320;2022-12-07T12:25:55;77.20;;;38.13;;
20038;SDS011;21737;42.868;25.320;2022-12-07T12:29:18;69.37;;;36.33;;
20038;SDS011;21737;42.868;25.320;2022-12-07T12:32:21;49.23;;;27.60;;
20038;SDS011;21737;42.868;25.320;2022-12-07T12:38:32;53.57;;;27.50;;
20038;SDS011;21737;42.868;25.320;2022-12-07T12:45:02;49.40;;;26.80;;
20038;SDS011;21737;42.868;25.320;2022-12-07T12:51:36;46.17;;;25.47;;
20038;SDS011;21737;42.868;25.320;2022-12-07T12:54:38;50.93;;;27.80;;
20038;SDS011;21737;42.868;25.320;2022-12-07T12:57:39;47.57;;;25.23;;
20038;SDS011;21737;42.868;25.320;2022-12-07T13:00:41;48.50;;;26.03;;
20038;SDS011;21737;42.868;25.320;2022-12-07T13:03:55;43.57;;;23.97;;
20038;SDS011;21737;42.868;25.320;2022-12-07T13:06:57;40.90;;;25.07;;
20038;SDS011;21737;42.868;25.320;2022-12-07T13:09:59;44.33;;;23.40;;
20038;SDS011;21737;42.868;25.320;2022-12-07T13:22:39;33.83;;;20.47;;
20038;SDS011;21737;42.868;25.320;2022-12-07T13:25:48;46.53;;;25.17;;
20038;SDS011;21737;42.868;25.320;2022-12-07T13:32:04;48.53;;;22.93;;
20038;SDS011;21737;42.868;25.320;2022-12-07T13:38:48;36.23;;;21.87;;
20038;SDS011;21737;42.868;25.320;2022-12-07T13:41:51;47.50;;;27.50;;
20038;SDS011;21737;42.868;25.320;2022-12-07T13:44:53;65.13;;;29.93;;
20038;SDS011;21737;42.868;25.320;2022-12-07T13:47:55;66.37;;;33.83;;
20038;SDS011;21737;42.868;25.320;2022-12-07T13:50:59;75.33;;;44.10;;
20038;SDS011;21737;42.868;25.320;2022-12-07T13:54:08;76.47;;;39.17;;
20038;SDS011;21737;42.868;25.320;2022-12-07T13:57:10;45.30;;;26.17;;
20038;SDS011;21737;42.868;25.320;2022-12-07T14:00:16;54.10;;;28.97;;
20038;SDS011;21737;42.868;25.320;2022-12-07T14:03:25;48.07;;;27.60;;
20038;SDS011;21737;42.868;25.320;2022-12-07T14:06:27;49.93;;;25.67;;
20038;SDS011;21737;42.868;25.320;2022-12-07T14:09:29;48.43;;;26.50;;
20038;SDS011;21737;42.868;25.320;2022-12-07T14:12:32;65.07;;;32.23;;
20038;SDS011;21737;42.868;25.320;2022-12-07T14:15:37;63.03;;;30.90;;
20038;SDS011;21737;42.868;25.320;2022-12-07T14:18:39;48.93;;;24.83;;
20038;SDS011;21737;42.868;25.320;2022-12-07T14:21:41;52.23;;;26.07;;
20038;SDS011;21737;42.868;25.320;2022-12-07T14:24:43;44.17;;;22.03;;
20038;SDS011;21737;42.868;25.320;2022-12-07T14:27:55;57.73;;;34.27;;
20038;SDS011;21737;42.868;25.320;2022-12-07T14:30:58;50.93;;;25.57;;
20038;SDS011;21737;42.868;25.320;2022-12-07T14:33:59;89.70;;;40.47;;
20038;SDS011;21737;42.868;25.320;2022-12-07T14:37:01;58.00;;;31.80;;
20038;SDS011;21737;42.868;25.320;2022-12-07T14:40:03;50.93;;;27.40;;
20038;SDS011;21737;42.868;25.320;2022-12-07T14:43:06;70.40;;;33.53;;
20038;SDS011;21737;42.868;25.320;2022-12-07T14:46:10;47.40;;;27.43;;
20038;SDS011;21737;42.868;25.320;2022-12-07T14:49:12;57.87;;;27.80;;
20038;SDS011;21737;42.868;25.320;2022-12-07T14:52:33;44.23;;;25.73;;
20038;SDS011;21737;42.868;25.320;2022-12-07T14:55:55;48.03;;;25.67;;
20038;SDS011;21737;42.868;25.320;2022-12-07T14:58:57;52.37;;;29.03;;
20038;SDS011;21737;42.868;25.320;2022-12-07T15:01:58;65.57;;;31.93;;
20038;SDS011;21737;42.868;25.320;2022-12-07T15:05:00;53.83;;;28.53;;
20038;SDS011;21737;42.868;25.320;2022-12-07T15:08:03;58.70;;;30.50;;
20038;SDS011;21737;42.868;25.320;2022-12-07T15:11:05;55.90;;;32.03;;
20038;SDS011;21737;42.868;25.320;2022-12-07T15:14:07;65.83;;;36.73;;
20038;SDS011;21737;42.868;25.320;2022-12-07T15:17:13;78.77;;;42.67;;
20038;SDS011;21737;42.868;25.320;2022-12-07T15:20:28;64.97;;;40.67;;
20038;SDS011;21737;42.868;25.320;2022-12-07T15:23:30;57.77;;;33.07;;
20038;SDS011;21737;42.868;25.320;2022-12-07T15:26:32;90.07;;;49.13;;
20038;SDS011;21737;42.868;25.320;2022-12-07T15:29:34;67.50;;;36.87;;
20038;SDS011;21737;42.868;25.320;2022-12-07T15:32:35;64.20;;;35.07;;
20038;SDS011;21737;42.868;25.320;2022-12-07T15:35:38;78.90;;;41.77;;
20038;SDS011;21737;42.868;25.320;2022-12-07T15:38:40;87.00;;;42.60;;
20038;SDS011;21737;42.868;25.320;2022-12-07T15:42:01;71.97;;;38.40;;
20038;SDS011;21737;42.868;25.320;2022-12-07T15:45:04;93.17;;;41.63;;
20038;SDS011;21737;42.868;25.320;2022-12-07T15:48:07;92.20;;;39.47;;
20038;SDS011;21737;42.868;25.320;2022-12-07T15:51:29;63.03;;;35.47;;
20038;SDS011;21737;42.868;25.320;2022-12-07T15:54:31;65.10;;;36.07;;
20038;SDS011;21737;42.868;25.320;2022-12-07T15:57:34;90.17;;;48.50;;
20038;SDS011;21737;42.868;25.320;2022-12-07T16:00:36;81.30;;;45.10;;
20038;SDS011;21737;42.868;25.320;2022-12-07T16:03:38;79.03;;;42.60;;
20038;SDS011;21737;42.868;25.320;2022-12-07T16:06:40;57.27;;;30.57;;
20038;SDS011;21737;42.868;25.320;2022-12-07T16:09:42;52.67;;;25.63;;
20038;SDS011;21737;42.868;25.320;2022-12-07T16:12:44;54.97;;;32.67;;
20038;SDS011;21737;42.868;25.320;2022-12-07T16:15:45;84.23;;;44.53;;
20038;SDS011;21737;42.868;25.320;2022-12-07T16:18:47;93.20;;;45.73;;
20038;SDS011;21737;42.868;25.320;2022-12-07T16:21:49;125.47;;;66.23;;
20038;SDS011;21737;42.868;25.320;2022-12-07T16:24:51;116.53;;;64.17;;
20038;SDS011;21737;42.868;25.320;2022-12-07T16:27:52;112.07;;;62.27;;
20038;SDS011;21737;42.868;25.320;2022-12-07T16:31:07;127.23;;;67.10;;
20038;SDS011;21737;42.868;25.320;2022-12-07T16:34:09;109.70;;;59.83;;
20038;SDS011;21737;42.868;25.320;2022-12-07T16:37:11;103.53;;;59.30;;
20038;SDS011;21737;42.868;25.320;2022-12-07T16:40:13;103.40;;;58.30;;
20038;SDS011;21737;42.868;25.320;2022-12-07T16:43:15;137.50;;;84.07;;
20038;SDS011;21737;42.868;25.320;2022-12-07T16:46:17;157.13;;;97.27;;
20038;SDS011;21737;42.868;25.320;2022-12-07T16:49:19;170.60;;;106.57;;
20038;SDS011;21737;42.868;25.320;2022-12-07T16:52:23;126.90;;;76.17;;
20038;SDS011;21737;42.868;25.320;2022-12-07T16:55:25;122.03;;;69.63;;
20038;SDS011;21737;42.868;25.320;2022-12-07T16:58:27;136.07;;;76.97;;
20038;SDS011;21737;42.868;25.320;2022-12-07T17:01:28;119.90;;;67.63;;
20038;SDS011;21737;42.868;25.320;2022-12-07T17:04:32;117.47;;;66.23;;
20038;SDS011;21737;42.868;25.320;2022-12-07T17:07:34;110.27;;;60.50;;
20038;SDS011;21737;42.868;25.320;2022-12-07T17:10:37;108.60;;;62.10;;
20038;SDS011;21737;42.868;25.320;2022-12-07T17:13:39;117.33;;;64.17;;
20038;SDS011;21737;42.868;25.320;2022-12-07T17:16:59;103.83;;;57.77;;
20038;SDS011;21737;42.868;25.320;2022-12-07T17:20:03;113.27;;;57.63;;
20038;SDS011;21737;42.868;25.320;2022-12-07T17:23:05;71.33;;;39.57;;
20038;SDS011;21737;42.868;25.320;2022-12-07T17:26:11;49.10;;;23.30;;
20038;SDS011;21737;42.868;25.320;2022-12-07T17:29:15;48.10;;;26.57;;
20038;SDS011;21737;42.868;25.320;2022-12-07T17:32:16;59.97;;;33.20;;
20038;SDS011;21737;42.868;25.320;2022-12-07T17:35:18;62.20;;;35.77;;
20038;SDS011;21737;42.868;25.320;2022-12-07T17:38:20;65.70;;;34.90;;
20038;SDS011;21737;42.868;25.320;2022-12-07T17:41:25;56.17;;;31.40;;
20038;SDS011;21737;42.868;25.320;2022-12-07T17:44:46;63.03;;;37.70;;
20038;SDS011;21737;42.868;25.320;2022-12-07T17:47:47;88.17;;;49.27;;
20038;SDS011;21737;42.868;25.320;2022-12-07T17:50:49;81.20;;;46.10;;
20038;SDS011;21737;42.868;25.320;2022-12-07T17:54:09;62.33;;;35.50;;
20038;SDS011;21737;42.868;25.320;2022-12-07T17:57:11;67.03;;;37.93;;
20038;SDS011;21737;42.868;25.320;2022-12-07T18:00:13;79.93;;;44.63;;
20038;SDS011;21737;42.868;25.320;2022-12-07T18:03:15;81.60;;;47.17;;
20038;SDS011;21737;42.868;25.320;2022-12-07T18:06:17;84.33;;;47.10;;
20038;SDS011;21737;42.868;25.320;2022-12-07T18:09:19;76.20;;;42.97;;
20038;SDS011;21737;42.868;25.320;2022-12-07T18:12:22;79.00;;;44.47;;
20038;SDS011;21737;42.868;25.320;2022-12-07T18:15:24;68.07;;;40.13;;
20038;SDS011;21737;42.868;25.320;2022-12-07T18:18:25;75.57;;;41.27;;
20038;SDS011;21737;42.868;25.320;2022-12-07T18:21:28;68.47;;;37.20;;
20038;SDS011;21737;42.868;25.320;2022-12-07T18:24:30;65.37;;;36.93;;
20038;SDS011;21737;42.868;25.320;2022-12-07T18:27:37;58.07;;;32.47;;
20038;SDS011;21737;42.868;25.320;2022-12-07T18:30:39;70.50;;;39.80;;
20038;SDS011;21737;42.868;25.320;2022-12-07T18:34:05;81.90;;;46.10;;
20038;SDS011;21737;42.868;25.320;2022-12-07T18:37:12;58.80;;;34.00;;
20038;SDS011;21737;42.868;25.320;2022-12-07T18:40:14;67.23;;;39.57;;
20038;SDS011;21737;42.868;25.320;2022-12-07T18:43:15;79.47;;;45.70;;
20038;SDS011;21737;42.868;25.320;2022-12-07T18:46:19;74.43;;;43.13;;
20038;SDS011;21737;42.868;25.320;2022-12-07T18:49:21;77.73;;;46.20;;
20038;SDS011;21737;42.868;25.320;2022-12-07T18:52:23;84.67;;;47.97;;
20038;SDS011;21737;42.868;25.320;2022-12-07T18:55:25;89.57;;;53.77;;
20038;SDS011;21737;42.868;25.320;2022-12-07T18:58:27;89.23;;;51.77;;
20038;SDS011;21737;42.868;25.320;2022-12-07T19:01:30;87.73;;;50.03;;
20038;SDS011;21737;42.868;25.320;2022-12-07T19:04:32;89.47;;;50.53;;
20038;SDS011;21737;42.868;25.320;2022-12-07T19:07:33;87.43;;;51.10;;
20038;SDS011;21737;42.868;25.320;2022-12-07T19:10:35;89.50;;;52.83;;
20038;SDS011;21737;42.868;25.320;2022-12-07T19:13:37;101.40;;;56.90;;
20038;SDS011;21737;42.868;25.320;2022-12-07T19:16:39;94.60;;;53.47;;
20038;SDS011;21737;42.868;25.320;2022-12-07T19:19:42;90.33;;;52.60;;
20038;SDS011;21737;42.868;25.320;2022-12-07T19:22:44;83.13;;;49.43;;
20038;SDS011;21737;42.868;25.320;2022-12-07T19:25:46;94.13;;;54.43;;